Time;durP1;ratioP1;P1;durP2;ratioP2;P2;SDS_P1;SDS_P2;PMS_P1;PMS_P2;Temp;Humidity;BMP_temperature;BMP_pressure;BME280_temperature;BME280_humidity;BME280_pressure;Samples;Min_cycle;Max_cycle;Signal;HPM_P1;HPM_P2
2021/12/10 00:01:24;;;;;;;15.73;3.25;;;;;;;4.13;66.48;97809.94;5100838;29;20059;-68
2021/12/10 00:04:16;;;;;;;11.98;3.20;;;;;;;3.81;67.89;97810.94;5101084;29;20095;-68
2021/12/10 00:07:14;;;;;;;9.82;2.90;;;;;;;3.93;66.73;97812.47;5102400;29;20410;-68
2021/12/10 00:10:09;;;;;;;13.43;3.25;;;;;;;4.09;67.19;97806.75;5088329;29;20138;-68
2021/12/10 00:13:00;;;;;;;7.07;2.63;;;;;;;3.86;67.18;97805.28;5102447;29;20048;-68
2021/12/10 00:15:54;;;;;;;7.13;2.45;;;;;;;3.85;67.00;97790.50;5102161;29;20076;-68
2021/12/10 00:18:51;;;;;;;13.20;2.35;;;;;;;4.06;67.02;97790.44;5103010;29;20179;-68
2021/12/10 00:21:42;;;;;;;9.50;2.45;;;;;;;3.90;66.25;97783.06;5102147;29;20046;-67
2021/12/10 00:24:33;;;;;;;16.27;2.42;;;;;;;3.79;67.01;97777.94;5102672;29;20062;-66
2021/12/10 00:27:31;;;;;;;8.57;2.42;;;;;;;4.12;65.25;97761.91;5109348;29;20046;-67
2021/12/10 00:30:32;;;;;;;10.02;2.40;;;;;;;3.88;65.99;97766.66;5115595;29;20045;-67
2021/12/10 00:33:25;;;;;;;8.65;2.30;;;;;;;3.54;66.93;97764.25;5101805;29;20074;-67
2021/12/10 00:36:15;;;;;;;10.80;2.60;;;;;;;3.56;67.71;97766.78;5099212;29;20054;-67
2021/12/10 00:39:11;;;;;;;7.05;1.52;;;;;;;3.53;66.52;97763.44;5101997;29;20110;-67
2021/12/10 00:42:04;;;;;;;13.18;2.83;;;;;;;3.82;66.33;97756.69;5102045;29;20054;-67
2021/12/10 00:44:56;;;;;;;10.93;2.40;;;;;;;3.80;66.18;97732.38;5106614;29;20408;-67
2021/12/10 00:47:48;;;;;;;10.15;2.33;;;;;;;3.99;65.04;97751.63;5107079;29;20051;-67
2021/12/10 00:50:43;;;;;;;10.02;2.88;;;;;;;3.84;65.43;97728.53;5101115;29;20423;-67
2021/12/10 00:53:34;;;;;;;12.23;3.00;;;;;;;4.00;64.84;97718.38;5102309;29;20048;-67
2021/12/10 00:56:25;;;;;;;7.68;2.33;;;;;;;3.90;65.55;97707.03;5099054;29;20067;-67
2021/12/10 00:59:23;;;;;;;14.13;2.75;;;;;;;4.00;64.85;97713.94;5113390;29;20733;-67
2021/12/10 01:02:18;;;;;;;6.85;2.47;;;;;;;4.32;64.01;97712.09;5100344;29;20530;-67
2021/12/10 01:05:11;;;;;;;13.95;3.88;;;;;;;3.88;65.31;97709.78;5098043;29;20168;-67
2021/12/10 01:08:01;;;;;;;22.52;4.55;;;;;;;3.60;66.60;97689.53;5101589;29;20132;-67
2021/12/10 01:10:57;;;;;;;13.48;2.30;;;;;;;3.71;65.36;97703.38;5101064;29;20055;-67
2021/12/10 01:13:51;;;;;;;7.63;2.60;;;;;;;3.86;65.19;97701.22;5101807;29;20070;-67
2021/12/10 01:29:09;;;;;;;11.77;2.38;;;;;;;3.74;64.75;97679.53;5120549;28;20042;-67
2021/12/10 01:32:02;;;;;;;13.05;2.90;;;;;;;3.47;66.08;97674.03;5104470;29;20183;-68
2021/12/10 01:34:53;;;;;;;10.00;2.40;;;;;;;3.49;66.31;97666.88;5106068;29;20721;-67
2021/12/10 01:37:43;;;;;;;9.82;2.53;;;;;;;3.66;65.22;97660.19;5105539;29;20422;-67
2021/12/10 01:40:37;;;;;;;12.63;2.63;;;;;;;3.59;65.48;97661.66;5104890;29;20537;-67
2021/12/10 01:43:33;;;;;;;7.70;3.05;;;;;;;3.35;65.73;97649.72;5104644;29;20052;-67
2021/12/10 01:46:27;;;;;;;11.27;2.45;;;;;;;3.13;66.30;97619.28;5115033;29;20050;-67
2021/12/10 01:49:18;;;;;;;12.52;2.67;;;;;;;3.41;66.50;97630.84;5125089;28;20061;-67
2021/12/10 01:52:09;;;;;;;8.63;2.60;;;;;;;3.19;67.25;97623.19;5103998;29;20050;-67
2021/12/10 01:55:03;;;;;;;8.57;2.40;;;;;;;3.38;66.94;97619.78;5105558;29;20058;-66
2021/12/10 01:57:54;;;;;;;12.27;2.95;;;;;;;3.40;66.76;97608.22;5104782;29;20166;-67
2021/12/10 02:00:48;;;;;;;12.40;2.80;;;;;;;3.45;66.34;97595.56;5110818;29;20043;-67
2021/12/10 02:03:39;;;;;;;;;;;;;;;3.68;66.34;97597.97;5112895;28;20851;-67
2021/12/10 02:06:30;;;;;;;8.68;2.42;;;;;;;3.45;66.02;97579.84;5103470;29;19926;-68
2021/12/10 02:09:22;;;;;;;8.35;2.80;;;;;;;3.29;65.94;97575.09;5104705;29;20046;-67
2021/12/10 02:12:13;;;;;;;14.10;2.50;;;;;;;3.06;66.15;97577.06;5104329;29;20054;-66
2021/12/10 02:15:04;;;;;;;6.60;2.35;;;;;;;3.01;66.54;97566.19;5105224;29;20054;-68
2021/12/10 02:17:57;;;;;;;9.80;2.72;;;;;;;3.18;66.01;97556.88;5104607;29;20087;-69
2021/12/10 02:21:01;;;;;;;11.73;3.47;;;;;;;2.85;67.01;97546.66;5105186;29;20048;-68
2021/12/10 02:23:57;;;;;;;12.48;3.33;;;;;;;3.08;67.16;97545.53;5104613;29;20060;-68
2021/12/10 02:26:55;;;;;;;9.57;3.17;;;;;;;3.14;66.33;97544.97;5103971;29;20414;-68
2021/12/10 02:29:45;;;;;;;11.30;3.25;;;;;;;2.83;66.62;97542.38;5104588;29;20051;-68
2021/12/10 02:32:35;;;;;;;8.35;3.25;;;;;;;2.93;65.75;97533.75;5115557;29;20049;-68
2021/12/10 02:35:29;;;;;;;11.52;3.00;;;;;;;2.91;66.39;97528.63;5107354;29;20054;-68
2021/12/10 02:38:20;;;;;;;19.83;3.00;;;;;;;3.06;65.73;97521.25;5102562;29;20046;-68
2021/12/10 02:41:12;;;;;;;12.55;3.10;;;;;;;3.26;64.41;97515.13;5103545;29;20051;-68
2021/12/10 02:44:04;;;;;;;12.75;3.13;;;;;;;2.95;65.54;97501.25;5099794;29;20051;-70
2021/12/10 02:46:56;;;;;;;10.77;2.95;;;;;;;2.64;66.98;97503.03;5112883;29;20054;-68
2021/12/10 02:49:46;;;;;;;11.32;3.10;;;;;;;2.39;68.66;97495.63;5103412;29;20051;-69
2021/12/10 02:52:36;;;;;;;9.77;3.17;;;;;;;2.46;68.00;97479.28;5103975;29;20054;-69
2021/12/10 02:55:29;;;;;;;7.35;2.85;;;;;;;2.53;67.41;97471.72;5104125;29;20447;-69
2021/12/10 02:58:20;;;;;;;13.02;3.10;;;;;;;2.63;66.97;97469.97;5104002;29;20046;-69
2021/12/10 03:01:16;;;;;;;9.43;2.90;;;;;;;2.88;65.71;97467.84;5104198;29;20063;-70
2021/12/10 03:04:08;;;;;;;15.23;3.42;;;;;;;2.94;64.90;97449.00;5113232;29;20518;-68
2021/12/10 03:07:01;;;;;;;8.68;2.88;;;;;;;2.78;65.79;97460.81;5108414;29;20526;-69
2021/12/10 03:09:53;;;;;;;9.05;2.92;;;;;;;2.89;65.41;97456.44;5103709;29;20067;-68
2021/12/10 03:12:43;;;;;;;9.68;2.95;;;;;;;2.73;65.61;97449.91;5103836;29;20187;-68
2021/12/10 03:15:35;;;;;;;10.93;3.40;;;;;;;3.03;64.86;97450.81;5104102;29;20043;-68
2021/12/10 03:18:25;;;;;;;15.88;3.80;;;;;;;3.14;64.64;97442.03;5104081;29;20051;-67
2021/12/10 03:21:16;;;;;;;16.25;3.85;;;;;;;3.01;65.42;97437.03;5103465;29;20283;-68
2021/12/10 03:24:06;;;;;;;10.93;3.88;;;;;;;2.88;64.35;97423.34;5103779;29;20507;-68
2021/12/10 03:26:58;;;;;;;13.50;3.92;;;;;;;2.88;65.35;97432.06;5103267;29;20051;-69
2021/12/10 03:29:49;;;;;;;10.68;3.53;;;;;;;2.63;65.97;97424.69;5103458;29;20422;-67
2021/12/10 03:32:40;;;;;;;12.75;3.58;;;;;;;2.40;66.85;97416.19;5102875;29;20054;-67
2021/12/10 03:35:35;;;;;;;10.48;3.70;;;;;;;2.35;66.87;97412.19;5119109;28;20134;-68
2021/12/10 03:38:25;;;;;;;11.38;3.58;;;;;;;2.27;67.40;97419.00;5104162;29;20063;-68
2021/12/10 03:41:16;;;;;;;9.30;3.47;;;;;;;2.31;67.66;97402.91;5101923;29;20132;-68
2021/12/10 03:44:06;;;;;;;10.70;3.20;;;;;;;2.36;67.38;97405.16;5103649;29;20053;-68
2021/12/10 03:46:58;;;;;;;13.45;3.30;;;;;;;2.79;64.89;97402.28;5107943;29;20138;-68
2021/12/10 03:49:49;;;;;;;9.02;3.78;;;;;;;2.19;67.54;97401.38;5108707;29;20130;-68
2021/12/10 03:52:39;;;;;;;11.57;3.55;;;;;;;2.07;67.70;97403.22;5100599;29;20573;-68
2021/12/10 03:55:29;;;;;;;10.57;3.30;;;;;;;2.05;68.39;97399.94;5103193;29;20067;-68
2021/12/10 03:58:19;;;;;;;12.70;4.05;;;;;;;2.09;67.15;97379.59;5103435;29;20095;-68
2021/12/10 04:01:12;;;;;;;7.97;3.15;;;;;;;1.84;68.94;97378.19;5099451;29;20490;-69
2021/12/10 04:04:06;;;;;;;10.57;3.87;;;;;;;1.59;69.97;97377.66;5105770;29;20054;-68
2021/12/10 04:06:58;;;;;;;14.73;3.88;;;;;;;1.14;71.10;97369.19;5111091;28;20054;-67
2021/12/10 04:09:50;;;;;;;13.40;3.70;;;;;;;0.92;70.93;97349.22;5102026;29;20079;-68
2021/12/10 04:12:40;;;;;;;9.50;2.88;;;;;;;1.05;71.65;97341.22;5100949;29;20187;-67
2021/12/10 04:15:30;;;;;;;8.43;2.38;;;;;;;1.44;70.99;97341.50;5102727;29;20553;-68
2021/12/10 04:18:21;;;;;;;10.57;2.70;;;;;;;1.81;70.24;97331.41;5101905;29;20048;-68
2021/12/10 04:21:12;;;;;;;6.15;2.50;;;;;;;1.82;68.70;97323.47;5102596;29;20099;-67
2021/12/10 04:24:03;;;;;;;13.75;2.90;;;;;;;1.53;70.12;97330.31;5101770;29;20058;-69
2021/12/10 04:26:54;;;;;;;12.05;2.90;;;;;;;1.82;69.49;97323.47;5102521;29;20074;-69
2021/12/10 04:29:46;;;;;;;14.82;3.20;;;;;;;1.65;69.33;97327.47;5101621;29;20544;-68
2021/12/10 04:32:37;;;;;;;15.20;2.83;;;;;;;1.35;70.14;97315.19;5082636;29;20710;-69
2021/12/10 04:35:27;;;;;;;11.65;3.25;;;;;;;1.45;69.86;97320.47;5084834;29;20048;-67
2021/12/10 04:38:18;;;;;;;11.30;2.67;;;;;;;2.02;67.79;97320.91;5116281;29;20126;-67
2021/12/10 04:41:10;;;;;;;12.85;3.42;;;;;;;1.99;67.22;97316.81;5100679;29;20073;-68
2021/12/10 04:44:00;;;;;;;11.65;2.67;;;;;;;1.71;68.52;97310.47;5102367;29;20548;-68
2021/12/10 04:46:50;;;;;;;9.20;3.28;;;;;;;1.28;70.31;97310.63;5108799;29;20050;-68
2021/12/10 04:49:40;;;;;;;6.70;3.08;;;;;;;1.39;69.70;97311.41;5108717;29;20150;-68
2021/12/10 04:52:34;;;;;;;14.32;3.70;;;;;;;1.38;68.94;97301.88;5100650;29;20063;-68
2021/12/10 04:55:24;;;;;;;15.00;3.58;;;;;;;1.40;69.49;97301.78;5100973;29;20071;-67
2021/12/10 04:58:14;;;;;;;9.82;3.55;;;;;;;1.36;69.08;97301.19;5102163;29;20055;-68
2021/12/10 05:01:05;;;;;;;8.50;3.22;;;;;;;1.41;69.61;97296.41;5106058;29;20170;-68
2021/12/10 05:03:56;;;;;;;16.52;4.05;;;;;;;1.41;69.13;97291.19;5111539;28;20047;-68
2021/12/10 05:06:46;;;;;;;11.23;3.97;;;;;;;1.68;68.71;97283.78;5102022;29;20043;-67
2021/12/10 05:09:36;;;;;;;17.40;4.15;;;;;;;1.71;68.35;97279.09;5115008;29;20046;-67
2021/12/10 05:12:27;;;;;;;11.40;3.63;;;;;;;1.62;68.08;97264.22;5101088;29;20067;-66
2021/12/10 05:15:22;;;;;;;11.13;4.30;;;;;;;1.86;67.64;97275.19;5101075;29;20099;-70
2021/12/10 05:18:13;;;;;;;14.48;4.07;;;;;;;2.08;66.43;97275.94;5108322;29;20051;-69
2021/12/10 05:21:05;;;;;;;17.35;4.13;;;;;;;1.88;67.17;97260.19;5108082;29;20048;-68
2021/12/10 05:23:55;;;;;;;16.92;3.85;;;;;;;1.93;66.99;97256.38;5101801;29;20040;-69
2021/12/10 05:26:46;;;;;;;11.80;4.32;;;;;;;1.59;67.12;97236.59;5101837;29;20062;-67
2021/12/10 05:29:37;;;;;;;11.00;4.03;;;;;;;1.44;68.81;97244.88;5100979;29;20051;-68
2021/12/10 05:32:27;;;;;;;15.20;4.70;;;;;;;1.10;69.16;97242.50;5106235;29;20418;-71
2021/12/10 05:35:17;;;;;;;11.50;4.07;;;;;;;1.02;70.25;97216.19;5119137;29;20438;-69
2021/12/10 05:38:08;;;;;;;10.35;4.50;;;;;;;0.90;70.75;97234.53;5121610;29;20703;-68
2021/12/10 05:40:59;;;;;;;11.82;3.97;;;;;;;0.81;71.48;97227.47;5097465;29;20050;-67
2021/12/10 05:43:49;;;;;;;10.27;3.92;;;;;;;0.97;70.50;97231.41;5091415;29;20058;-67
2021/12/10 05:46:40;;;;;;;10.60;4.10;;;;;;;1.10;69.89;97226.84;5107733;29;20054;-70
2021/12/10 05:49:30;;;;;;;12.25;4.07;;;;;;;1.24;69.44;97221.28;5100598;29;20051;-68
2021/12/10 05:52:21;;;;;;;12.85;3.97;;;;;;;1.74;68.18;97226.59;5102235;29;20540;-67
2021/12/10 05:55:12;;;;;;;12.90;4.47;;;;;;;1.83;67.65;97220.56;5102067;29;20104;-67
2021/12/10 05:58:03;;;;;;;12.85;4.85;;;;;;;1.81;67.47;97230.31;5101425;29;20142;-68
2021/12/10 06:01:00;;;;;;;16.77;4.07;;;;;;;2.01;66.01;97230.38;5101434;29;20594;-68
2021/12/10 06:03:53;;;;;;;10.68;3.90;;;;;;;1.85;66.53;97233.50;5104481;29;20114;-67
2021/12/10 06:06:43;;;;;;;14.50;5.40;;;;;;;1.26;68.84;97227.22;5105032;29;20055;-66
2021/12/10 06:09:34;;;;;;;11.18;4.38;;;;;;;1.40;68.73;97223.44;5105067;29;20055;-68
2021/12/10 06:12:24;;;;;;;10.35;4.43;;;;;;;1.30;69.31;97210.31;5104386;29;20131;-67
2021/12/10 06:15:22;;;;;;;18.02;5.53;;;;;;;1.46;68.39;97206.38;5105400;29;20119;-67
2021/12/10 06:18:12;;;;;;;9.63;4.40;;;;;;;0.89;69.75;97191.13;5103805;29;20055;-67
2021/12/10 06:21:03;;;;;;;15.18;5.88;;;;;;;0.70;71.25;97194.44;5104737;29;20078;-68
2021/12/10 06:23:53;;;;;;;13.05;5.63;;;;;;;0.61;70.97;97166.50;5105159;29;20276;-67
2021/12/10 06:26:43;;;;;;;13.13;5.35;;;;;;;0.76;71.26;97151.34;5106719;29;20047;-67
2021/12/10 06:29:36;;;;;;;19.00;6.07;;;;;;;0.73;71.69;97158.59;5110343;29;20046;-67
2021/12/10 06:32:26;;;;;;;18.35;6.43;;;;;;;1.02;71.06;97158.78;5102563;29;20126;-67
2021/12/10 06:35:18;;;;;;;14.10;6.50;;;;;;;1.02;70.28;97150.94;5103664;29;20071;-67
2021/12/10 06:38:09;;;;;;;14.32;6.22;;;;;;;0.85;71.28;97155.78;5112218;29;20114;-66
2021/12/10 06:41:00;;;;;;;18.85;6.72;;;;;;;0.86;71.25;97154.00;5101441;29;20084;-67
2021/12/10 06:43:50;;;;;;;18.95;6.57;;;;;;;0.97;70.66;97150.53;5090657;29;20046;-67
2021/12/10 06:46:40;;;;;;;15.27;6.15;;;;;;;1.21;69.99;97138.00;5091634;29;20191;-66
2021/12/10 06:49:33;;;;;;;17.92;6.53;;;;;;;1.34;69.06;97135.16;5105493;29;20106;-66
2021/12/10 06:52:23;;;;;;;16.73;6.55;;;;;;;1.64;68.65;97132.50;5111732;29;20059;-66
2021/12/10 06:55:14;;;;;;;13.98;6.50;;;;;;;1.91;67.95;97122.38;5110008;29;20059;-66
2021/12/10 06:58:07;;;;;;;18.73;6.82;;;;;;;1.92;67.23;97116.19;5111200;29;20051;-66
2021/12/10 07:01:06;;;;;;;15.80;7.30;;;;;;;1.97;66.39;97106.97;5110100;29;20078;-66
2021/12/10 07:04:00;;;;;;;17.35;7.20;;;;;;;1.95;67.05;97098.44;5104321;29;20051;-67
2021/12/10 07:06:52;;;;;;;22.20;7.85;;;;;;;1.64;67.85;97095.94;5111162;29;20047;-67
2021/12/10 07:09:42;;;;;;;24.13;7.25;;;;;;;1.88;66.75;97092.94;5114536;29;20106;-67
2021/12/10 07:12:38;;;;;;;42.53;8.30;;;;;;;1.74;67.58;97085.50;5102813;29;20058;-67
2021/12/10 07:15:29;;;;;;;40.40;8.35;;;;;;;1.78;67.46;97083.44;5104086;29;20214;-67
2021/12/10 07:18:20;;;;;;;33.42;8.63;;;;;;;1.92;67.82;97077.84;5103694;29;20430;-67
2021/12/10 07:21:10;;;;;;;30.88;8.52;;;;;;;1.92;66.65;97059.53;5104288;29;20693;-67
2021/12/10 07:24:05;;;;;;;25.55;8.90;;;;;;;2.17;65.92;97054.72;5102368;29;20043;-66
2021/12/10 07:26:57;;;;;;;24.88;10.18;;;;;;;1.94;67.33;97046.31;5103565;29;20157;-67
2021/12/10 07:29:47;;;;;;;22.27;10.57;;;;;;;1.95;67.55;97055.81;5103536;29;20525;-67
2021/12/10 07:32:37;;;;;;;29.67;10.70;;;;;;;1.91;67.34;97039.56;5102414;29;20150;-67
2021/12/10 07:35:28;;;;;;;26.35;10.15;;;;;;;1.87;67.62;97046.88;5103447;29;20146;-66
2021/12/10 07:38:19;;;;;;;22.63;9.45;;;;;;;1.93;66.77;97042.88;5103536;29;20130;-66
2021/12/10 07:41:09;;;;;;;36.03;9.85;;;;;;;2.17;65.98;97044.25;5100516;29;20565;-67
2021/12/10 07:44:00;;;;;;;27.48;10.85;;;;;;;2.00;67.00;97043.16;5103113;29;20115;-67
2021/12/10 07:46:50;;;;;;;46.58;11.68;;;;;;;1.98;67.24;97045.91;5101763;29;20442;-67
2021/12/10 07:49:42;;;;;;;26.88;11.10;;;;;;;2.00;67.62;97040.53;5103212;29;20130;-67
2021/12/10 07:52:34;;;;;;;28.38;11.27;;;;;;;2.13;67.07;97035.03;5103355;29;20059;-67
2021/12/10 07:55:28;;;;;;;24.60;10.43;;;;;;;2.23;67.58;97023.59;5094260;29;20047;-66
2021/12/10 07:58:18;;;;;;;21.13;10.43;;;;;;;2.27;67.16;97024.97;5102670;29;20524;-66
2021/12/10 08:01:15;;;;;;;26.77;12.10;;;;;;;2.43;66.90;97011.31;5103015;29;20047;-66
2021/12/10 08:04:06;;;;;;;23.08;11.18;;;;;;;2.48;67.31;97018.72;5101194;29;20070;-66
2021/12/10 08:06:57;;;;;;;26.08;11.07;;;;;;;2.49;66.56;97008.13;5102535;29;20055;-67
2021/12/10 08:09:47;;;;;;;27.90;11.95;;;;;;;2.51;66.32;97013.19;5102196;29;20434;-68
2021/12/10 08:12:37;;;;;;;28.90;10.82;;;;;;;2.38;66.71;97010.06;5101988;29;20059;-69
2021/12/10 08:15:28;;;;;;;30.25;10.93;;;;;;;2.53;66.17;97012.09;5102118;29;20047;-68
2021/12/10 08:18:19;;;;;;;27.13;11.02;;;;;;;2.64;65.65;97008.47;5117973;29;20058;-67
2021/12/10 08:21:09;;;;;;;25.52;10.57;;;;;;;2.58;65.50;97007.28;5122369;29;20090;-67
2021/12/10 08:23:59;;;;;;;26.25;11.23;;;;;;;2.39;65.75;97014.34;5121339;28;20062;-67
2021/12/10 08:26:50;;;;;;;26.88;11.27;;;;;;;2.92;64.74;97013.78;5107838;29;20553;-67
2021/12/10 08:29:43;;;;;;;26.20;10.05;;;;;;;2.67;64.70;97000.34;5105744;29;20098;-67
2021/12/10 08:32:33;;;;;;;23.33;10.60;;;;;;;2.32;65.93;96980.09;5107109;29;20058;-67
2021/12/10 08:35:27;;;;;;;25.65;9.57;;;;;;;2.68;64.91;97006.41;5102986;29;20115;-67
2021/12/10 08:38:17;;;;;;;21.80;10.55;;;;;;;2.87;65.32;97015.97;5102227;29;20182;-67
2021/12/10 08:41:18;;;;;;;24.40;11.00;;;;;;;3.11;64.00;97013.66;5101768;29;20098;-67
2021/12/10 08:44:10;;;;;;;20.67;9.18;;;;;;;2.96;64.86;97010.72;5102261;29;20087;-68
2021/12/10 08:47:01;;;;;;;23.45;9.63;;;;;;;3.00;64.97;97019.09;5101740;29;20051;-67
2021/12/10 08:49:51;;;;;;;22.08;9.63;;;;;;;3.18;64.13;97021.75;5102100;29;20044;-68
2021/12/10 08:52:42;;;;;;;21.55;9.43;;;;;;;3.08;63.93;97019.22;5101713;29;20071;-65
2021/12/10 08:55:36;;;;;;;17.70;8.57;;;;;;;3.57;62.40;97024.97;5102178;29;20059;-65
2021/12/10 08:58:28;;;;;;;22.23;9.98;;;;;;;3.64;61.96;97020.81;5102695;29;20614;-65
2021/12/10 09:01:24;;;;;;;22.23;8.98;;;;;;;3.92;59.45;97012.88;5101742;29;20048;-66
2021/12/10 09:04:15;;;;;;;20.25;8.80;;;;;;;3.76;60.40;97011.72;5101525;29;20092;-65
2021/12/10 09:07:09;;;;;;;21.38;8.95;;;;;;;3.59;61.27;97012.56;5100770;29;20490;-65
2021/12/10 09:09:59;;;;;;;17.60;8.25;;;;;;;3.72;62.04;97007.78;5100758;29;20054;-66
2021/12/10 09:12:50;;;;;;;18.48;8.68;;;;;;;3.78;61.04;97005.53;5100788;29;20075;-67
2021/12/10 09:15:48;;;;;;;16.58;9.00;;;;;;;3.66;61.40;96991.81;5101891;29;20067;-67
2021/12/10 09:18:40;;;;;;;23.00;9.93;;;;;;;3.69;60.91;97002.81;5101234;29;20054;-67
2021/12/10 09:21:33;;;;;;;19.25;9.38;;;;;;;3.38;61.84;96996.28;5101954;29;20142;-67
2021/12/10 09:24:24;;;;;;;22.63;9.23;;;;;;;3.28;61.92;96986.69;5101720;29;20051;-67
2021/12/10 09:27:15;;;;;;;16.52;9.25;;;;;;;3.46;61.37;96989.34;5100501;29;20150;-67
2021/12/10 09:30:10;;;;;;;23.25;9.50;;;;;;;3.50;61.95;96982.00;5101941;29;20208;-67
2021/12/10 09:33:00;;;;;;;21.65;9.77;;;;;;;3.37;62.64;96971.88;5101439;29;20071;-67
2021/12/10 09:35:51;;;;;;;19.00;9.30;;;;;;;3.64;61.27;96963.16;5101398;29;20062;-67
2021/12/10 09:38:41;;;;;;;24.40;9.43;;;;;;;3.76;61.56;96966.34;5105091;29;20198;-67
2021/12/10 09:41:32;;;;;;;20.95;9.90;;;;;;;3.62;61.67;96965.09;5105020;29;20055;-67
2021/12/10 09:44:23;;;;;;;20.98;9.73;;;;;;;3.83;61.88;96961.31;5105396;29;20062;-67
2021/12/10 09:47:15;;;;;;;25.95;11.77;;;;;;;3.76;60.90;96951.44;5107363;29;20044;-67
2021/12/10 09:50:08;;;;;;;30.15;10.02;;;;;;;3.72;62.38;96960.59;5107109;29;20138;-67
2021/12/10 09:52:59;;;;;;;30.17;9.80;;;;;;;3.94;61.80;96948.81;5105350;29;20055;-66
2021/12/10 09:55:50;;;;;;;25.80;9.52;;;;;;;3.92;62.01;96942.06;5104316;29;20054;-69
2021/12/10 09:58:41;;;;;;;22.67;9.15;;;;;;;3.91;60.85;96938.63;5105756;29;20055;-66
2021/12/10 10:01:37;;;;;;;18.17;8.80;;;;;;;3.87;61.35;96925.97;5105350;29;20154;-67
2021/12/10 10:04:31;;;;;;;21.05;9.75;;;;;;;3.91;62.36;96922.91;5105626;29;20046;-69
2021/12/10 10:07:32;;;;;;;21.48;10.00;;;;;;;3.83;62.10;96914.97;5104974;29;20206;-69
2021/12/10 10:10:24;;;;;;;19.52;9.10;;;;;;;3.84;62.01;96915.78;5085932;29;20055;-69
2021/12/10 10:13:16;;;;;;;24.73;9.23;;;;;;;3.97;61.77;96913.56;5085205;29;20044;-67
2021/12/10 10:16:06;;;;;;;21.80;9.75;;;;;;;3.87;61.30;96913.66;5084336;29;20084;-67
2021/12/10 10:18:57;;;;;;;31.02;11.23;;;;;;;3.99;61.91;96909.84;5085495;29;20055;-66
2021/12/10 10:21:53;;;;;;;18.88;9.43;;;;;;;3.75;61.63;96902.63;5087300;29;20769;-66
2021/12/10 10:24:43;;;;;;;22.83;9.57;;;;;;;4.02;61.19;96892.97;5105211;29;20058;-66
2021/12/10 10:27:35;;;;;;;19.85;9.20;;;;;;;4.02;61.50;96887.72;5104686;29;20130;-66
2021/12/10 10:30:30;;;;;;;24.73;10.48;;;;;;;4.23;61.58;96882.94;5104524;29;20074;-67
2021/12/10 10:33:21;;;;;;;21.38;9.57;;;;;;;4.24;61.23;96854.91;5104494;29;20419;-66
2021/12/10 10:36:19;;;;;;;25.65;9.05;;;;;;;4.29;60.89;96844.75;5104205;29;20848;-66
2021/12/10 10:39:14;;;;;;;18.17;7.80;;;;;;;4.48;59.42;96852.38;5101248;29;20529;-66
2021/12/10 10:42:11;;;;;;;15.38;7.30;;;;;;;4.58;59.08;96856.69;5102888;29;20562;-66
2021/12/10 10:45:23;;;;;;;13.93;6.30;;;;;;;4.65;58.32;96866.41;5104762;29;20059;-67
2021/12/10 10:48:15;;;;;;;19.08;6.28;;;;;;;4.66;57.12;96839.16;5104159;29;20058;-67
2021/12/10 10:51:13;;;;;;;16.85;6.95;;;;;;;4.61;58.14;96844.06;5103777;29;20548;-67
2021/12/10 10:54:11;;;;;;;17.30;6.53;;;;;;;4.69;57.75;96833.59;5104267;29;20425;-66
2021/12/10 10:57:12;;;;;;;11.82;5.53;;;;;;;4.57;57.23;96829.63;5103920;29;20119;-68
2021/12/10 11:00:28;;;;;;;16.77;6.18;;;;;;;4.61;57.44;96830.94;5103320;29;20630;-66
2021/12/10 11:03:23;;;;;;;13.27;6.03;;;;;;;4.66;58.54;96823.41;5104320;29;20159;-66
2021/12/10 11:06:24;;;;;;;12.40;6.07;;;;;;;4.77;59.54;96824.09;5104047;29;20055;-67
2021/12/10 11:09:26;;;;;;;13.38;6.60;;;;;;;4.72;59.10;96833.28;5103933;29;20047;-66
2021/12/10 11:12:21;;;;;;;14.55;5.72;;;;;;;4.83;59.02;96823.44;5102988;29;20039;-66
2021/12/10 11:15:15;;;;;;;15.25;6.15;;;;;;;4.88;58.25;96821.16;5103790;29;20107;-66
2021/12/10 11:18:13;;;;;;;13.88;5.55;;;;;;;4.75;58.80;96791.94;5103844;29;20685;-66
2021/12/10 11:21:03;;;;;;;18.05;6.28;;;;;;;4.91;58.71;96819.03;5103677;29;20467;-67
2021/12/10 11:24:06;;;;;;;11.15;5.15;;;;;;;4.93;58.18;96813.63;5103638;29;20126;-66
2021/12/10 11:27:02;;;;;;;15.10;5.88;;;;;;;4.97;57.63;96819.38;5083601;29;20044;-68
2021/12/10 11:30:03;;;;;;;13.02;5.65;;;;;;;5.09;60.29;96824.16;5103292;29;20050;-67
2021/12/10 11:33:18;;;;;;;15.05;5.28;;;;;;;5.15;57.76;96815.63;5103273;29;20113;-67
2021/12/10 11:36:15;;;;;;;13.77;5.82;;;;;;;5.18;58.00;96820.53;5103138;29;20055;-67
2021/12/10 11:39:06;;;;;;;13.00;5.68;;;;;;;5.37;57.73;96818.59;5103902;29;20529;-67
2021/12/10 11:41:56;;;;;;;13.02;4.82;;;;;;;5.35;58.67;96820.56;5102788;29;20069;-67
2021/12/10 11:45:05;;;;;;;14.52;4.18;;;;;;;5.19;56.00;96819.56;5103321;29;20529;-67
2021/12/10 11:48:04;;;;;;;14.00;4.65;;;;;;;5.13;56.15;96814.97;5102971;29;20114;-67
2021/12/10 11:51:03;;;;;;;10.32;3.92;;;;;;;5.21;56.08;96818.59;5102949;29;20410;-67
2021/12/10 11:53:59;;;;;;;10.50;4.07;;;;;;;5.27;54.41;96821.38;5102953;29;20118;-67
2021/12/10 11:57:23;;;;;;;9.45;4.25;;;;;;;5.30;56.30;96828.13;5102624;29;20040;-67
2021/12/10 12:00:19;;;;;;;9.93;4.28;;;;;;;5.25;56.28;96822.53;5102649;29;20043;-67
2021/12/10 12:03:10;;;;;;;8.73;3.67;;;;;;;5.58;55.27;96831.22;5103074;29;20050;-67
2021/12/10 12:06:02;;;;;;;7.90;4.30;;;;;;;5.30;57.54;96826.31;5101586;29;20067;-67
2021/12/10 12:08:52;;;;;;;9.50;4.45;;;;;;;5.11;57.68;96816.94;5103185;29;20091;-67
2021/12/10 12:12:10;;;;;;;8.90;5.03;;;;;;;5.46;56.29;96830.72;5082305;29;20774;-67
2021/12/10 12:15:27;;;;;;;11.38;4.75;;;;;;;5.58;54.20;96823.34;5083306;29;20095;-67
2021/12/10 12:18:22;;;;;;;7.47;3.70;;;;;;;5.16;55.46;96826.94;5083214;29;20103;-67
2021/12/10 12:28:09;;;;;;;5.10;1.33;;;;;;;3.43;61.49;96824.56;5099485;29;20075;-67
2021/12/10 12:31:27;;;;;;;5.45;1.70;;;;;;;3.49;63.36;96823.97;5102495;29;20050;-67
2021/12/10 12:34:19;;;;;;;10.82;1.58;;;;;;;3.40;63.18;96824.06;5102062;29;20050;-67
2021/12/10 12:37:12;;;;;;;6.57;1.67;;;;;;;3.57;64.19;96822.38;5101717;29;20054;-67
2021/12/10 12:40:23;;;;;;;3.80;1.70;;;;;;;3.37;64.41;96824.38;5103523;29;20051;-67
2021/12/10 12:43:13;;;;;;;3.33;1.63;;;;;;;2.90;67.42;96817.59;5104859;29;20046;-67
2021/12/10 12:46:21;;;;;;;4.43;1.90;;;;;;;2.84;68.50;96820.78;5089905;29;20059;-68
2021/12/10 12:49:12;;;;;;;8.35;1.92;;;;;;;3.51;66.20;96823.84;5108747;29;20044;-67
2021/12/10 12:52:09;;;;;;;5.82;2.30;;;;;;;3.49;67.54;96821.34;5121758;29;20054;-68
2021/12/10 12:55:35;;;;;;;4.07;2.05;;;;;;;3.02;69.36;96816.41;5122185;29;20055;-67
2021/12/10 12:58:32;;;;;;;6.18;2.25;;;;;;;3.35;68.62;96815.84;5122116;29;20059;-68
2021/12/10 13:01:47;;;;;;;6.05;2.03;;;;;;;4.04;66.17;96814.13;5114822;29;20449;-68
2021/12/10 13:04:41;;;;;;;4.65;2.25;;;;;;;4.10;66.28;96819.59;5116549;29;20050;-67
2021/12/10 13:07:38;;;;;;;9.38;2.15;;;;;;;3.73;67.79;96823.31;5121438;29;20095;-68
2021/12/10 13:10:28;;;;;;;3.78;2.13;;;;;;;3.73;68.89;96818.06;5113664;29;20051;-70
2021/12/10 13:13:35;;;;;;;3.88;1.90;;;;;;;3.62;69.56;96815.72;5105614;29;20107;-68
2021/12/10 13:16:45;;;;;;;3.53;1.63;;;;;;;3.50;69.68;96822.16;5106030;29;20055;-69
2021/12/10 13:19:36;;;;;;;6.00;1.98;;;;;;;3.58;69.90;96813.56;5108676;29;20074;-67
2021/12/10 13:22:29;;;;;;;5.90;1.95;;;;;;;3.75;68.88;96818.75;5110690;29;21426;-68
2021/12/10 13:25:23;;;;;;;6.45;2.50;;;;;;;3.61;70.16;96805.38;5108961;29;20178;-67
2021/12/10 13:28:14;;;;;;;7.65;2.00;;;;;;;3.90;68.96;96805.06;5105072;29;20043;-68
2021/12/10 13:31:09;;;;;;;4.60;1.90;;;;;;;3.38;70.23;96810.28;5103612;29;20056;-68
2021/12/10 13:34:00;;;;;;;5.85;1.92;;;;;;;3.79;70.09;96810.56;5097101;29;20040;-68
2021/12/10 13:36:50;;;;;;;3.70;2.03;;;;;;;4.05;69.73;96819.25;5094506;29;20110;-68
2021/12/10 13:39:43;;;;;;;5.45;2.30;;;;;;;4.13;68.01;96816.66;5095801;29;20130;-69
2021/12/10 13:42:34;;;;;;;6.85;2.13;;;;;;;3.89;68.49;96819.97;5112522;29;20126;-69
2021/12/10 13:45:25;;;;;;;6.85;3.25;;;;;;;4.04;69.16;96817.59;5104815;29;20058;-69
2021/12/10 13:48:17;;;;;;;5.10;2.75;;;;;;;3.97;68.47;96827.06;5105461;29;20534;-68
2021/12/10 13:51:10;;;;;;;16.60;3.13;;;;;;;3.88;68.70;96825.38;5104949;29;20095;-69
2021/12/10 13:54:10;;;;;;;9.43;3.92;;;;;;;4.05;68.91;96818.44;5109203;29;20622;-68
2021/12/10 13:57:04;;;;;;;13.63;2.95;;;;;;;3.83;69.13;96830.25;5088952;29;20094;-68